Aérodrome :
LOGIN :

S'inscrire | Disclaimer

   EN    FR    IT 

 










Légende :    VFR   VFR Marginal   IFR   IFR Intensif   IFR Très Intensif
Visi : 
Plafond : 
>= 8 km
>= 3000ft
5 à 8 km
1000 à 3000 ft
1500m à 5 km
500 à 1000 ft
800 à 1500m
200 à 500 ft
< 800m
< 200 ft
Symboles :   Orages  Brouillard  Fortes neiges  Fortes précipitations  Vent > 20 kt
SIGMETs :   Divers  Orages  Givrage  Turbulence  Onde Orograph.  Cendres Volcan.






- Altitude de l'aérodrome : 392 ft
- Code IATA : CDG


LFPG - Paris-Aeroport Charles De Gaulle

DERNIER METAR :
  • 122000Z VRB02KT CAVOK 25/20 Q1012 NOSIG

METARs EXPIRÉS :
  • 121930Z 30004KT CAVOK 26/20 Q1011 NOSIG
  • 121900Z 26006KT CAVOK 27/20 Q1011 TEMPO VRB15G35KT TSRA
  • 121830Z 35004KT 9999 FEW073CB BKN150 BKN240 28/20 Q1010 TEMPO VRB15G35KT TSRA
  • 121800Z 23003KT 190V290 9999 -SHRA FEW073CB BKN090 BKN240 28/19 Q1010 TEMPO VRB15G35KT TSRA
  • 121730Z 21010KT 9999 FEW073CB SCT130 BKN240 30/17 Q1010 TEMPO VRB15G35KT TSRA

TAF TAF LFPG
Valide du 12 à 18h jusqu'au 14 à 00h UTC


121700Z 1218/1324 VRB05KT 9999 BKN060TCU TX28/1315Z TN20/1305Z
TEMPO 1218/1304 TSRA SCT060CB
PROB40
TEMPO 1218/1220 VRB15G35KT 1500 TSGR BKN060CB
PROB30
TEMPO 1302/1304 4500 TSRA SCT060CB
BECMG 1305/1307 20010KT
TEMPO 1311/1321 SHRA SCT020CB
PROB40
TEMPO 1313/1315 18015G30KT 4000 TSRA
BECMG 1321/1323 BKN010
ATIS : +33 1 48 62 10 92



MET'MAP, la Météo Aéronautique d'un coup d'oeil ! - Copyright ORBIFLY Décembre 2007 - Disclaimer

ORBIFLY MET'MAP TEAM :

Programmation & Développement : Alexandra Zaïnal
Sur une idée originale de : Baudouin d'Aumeries
Assistance à la programmation : Marc-Olivier Méhu
Soutien technique & logistique : Manuel Goepfert

Contact : metmap@orbifly.com




SOURCES & CREDITS :

   NOAA